Time;durP1;ratioP1;P1;durP2;ratioP2;P2;SDS_P1;SDS_P2;PMS_P1;PMS_P2;Temp;Humidity;BMP_temperature;BMP_pressure;BME280_temperature;BME280_humidity;BME280_pressure;Samples;Min_cycle;Max_cycle;Signal;HPM_P1;HPM_P2
2022/03/05 00:03:59;;;;;;;32.83;17.90;;;;;;;2.59;88.29;100922.67;2809472;84;21046;-69
2022/03/05 00:08:01;;;;;;;29.90;17.17;;;;;;;2.62;88.13;100927.80;2809145;84;21042;-69
2022/03/05 00:12:03;;;;;;;22.73;16.10;;;;;;;2.57;88.15;100930.59;2809420;84;21578;-69
2022/03/05 00:16:05;;;;;;;31.37;18.82;;;;;;;2.53;88.36;100934.70;2809469;84;21108;-69
2022/03/05 00:20:08;;;;;;;29.72;15.85;;;;;;;2.56;88.37;100921.00;2809478;84;21042;-69
2022/03/05 00:24:10;;;;;;;21.55;14.58;;;;;;;2.56;87.94;100924.95;2809380;84;21057;-67
2022/03/05 00:28:12;;;;;;;26.77;17.57;;;;;;;2.60;87.86;100920.44;2809139;84;21085;-69
2022/03/05 00:32:13;;;;;;;23.90;14.50;;;;;;;2.67;87.92;100920.59;2807062;84;21081;-69
2022/03/05 00:36:15;;;;;;;32.40;18.00;;;;;;;2.68;87.68;100922.78;2769176;85;21042;-69
2022/03/05 00:40:17;;;;;;;24.80;15.10;;;;;;;2.78;87.66;100924.59;2768952;84;21147;-69
2022/03/05 00:44:19;;;;;;;29.85;16.32;;;;;;;2.82;87.35;100918.29;2769295;85;21090;-69
2022/03/05 00:48:21;;;;;;;21.17;13.03;;;;;;;2.83;87.04;100914.27;2769300;84;21062;-69
2022/03/05 00:52:22;;;;;;;28.35;15.75;;;;;;;2.95;86.92;100919.97;2769191;85;21046;-69
2022/03/05 00:56:24;;;;;;;28.07;16.80;;;;;;;2.96;86.50;100919.92;2769606;85;21050;-69
2022/03/05 01:00:26;;;;;;;17.62;13.50;;;;;;;2.90;86.32;100917.52;2769708;86;21074;-68
2022/03/05 01:04:27;;;;;;;26.62;15.00;;;;;;;2.83;86.28;100914.74;2769677;86;21046;-69
2022/03/05 01:08:28;;;;;;;34.45;18.92;;;;;;;2.82;86.54;100911.72;2769478;86;21046;-69
2022/03/05 01:12:30;;;;;;;21.82;14.43;;;;;;;2.84;86.24;100915.14;2769507;86;21142;-69
2022/03/05 01:16:34;;;;;;;22.60;15.18;;;;;;;2.76;86.23;100915.44;2769960;86;21073;-69
2022/03/05 01:20:35;;;;;;;26.95;16.25;;;;;;;2.75;86.46;100907.60;2770490;85;20992;-69
2022/03/05 01:24:37;;;;;;;30.48;17.60;;;;;;;2.58;86.71;100910.45;2770148;86;21090;-69
2022/03/05 01:28:39;;;;;;;25.20;15.80;;;;;;;2.54;86.98;100912.33;2769714;85;21007;-69
2022/03/05 01:32:40;;;;;;;23.22;15.53;;;;;;;2.57;87.13;100907.43;2773858;84;21074;-68
2022/03/05 01:36:42;;;;;;;26.62;14.78;;;;;;;2.57;87.16;100908.75;2826028;84;21022;-69
2022/03/05 01:40:45;;;;;;;18.90;13.45;;;;;;;2.55;87.20;100915.36;2833787;84;20998;-69
2022/03/05 01:44:47;;;;;;;26.10;15.63;;;;;;;2.48;87.37;100911.27;2833499;84;21046;-69
2022/03/05 01:48:49;;;;;;;31.20;18.30;;;;;;;2.45;87.43;100911.35;2833533;82;21086;-69
2022/03/05 01:52:51;;;;;;;21.12;15.32;;;;;;;2.40;87.50;100910.68;2812725;84;21053;-69
2022/03/05 01:56:54;;;;;;;26.23;17.75;;;;;;;2.38;87.68;100910.76;2825660;84;21065;-69
2022/03/05 02:00:56;;;;;;;29.30;17.00;;;;;;;2.40;87.55;100912.86;2833149;84;21053;-69
2022/03/05 02:04:58;;;;;;;22.40;12.53;;;;;;;2.45;87.35;100906.09;2833685;84;21077;-69
2022/03/05 02:08:59;;;;;;;26.12;15.93;;;;;;;2.52;87.25;100901.48;2813062;84;21014;-69
2022/03/05 02:13:01;;;;;;;26.33;17.65;;;;;;;2.49;87.19;100904.22;2825101;84;21562;-68
2022/03/05 02:17:04;;;;;;;24.95;15.10;;;;;;;2.51;87.16;100902.39;2833061;84;21065;-69
2022/03/05 02:21:06;;;;;;;25.60;16.00;;;;;;;2.53;86.94;100898.80;2833180;84;21092;-69
2022/03/05 02:25:09;;;;;;;24.35;16.73;;;;;;;2.55;86.60;100897.41;2812769;83;21094;-69
2022/03/05 02:29:10;;;;;;;22.82;16.35;;;;;;;2.60;86.81;100898.11;2826047;83;21125;-69
2022/03/05 02:33:12;;;;;;;28.30;15.03;;;;;;;2.72;86.92;100902.03;2838175;82;21106;-69
2022/03/05 02:37:16;;;;;;;21.37;13.45;;;;;;;2.68;85.92;100903.91;2862870;82;21073;-68
2022/03/05 02:41:20;;;;;;;23.40;15.13;;;;;;;2.62;86.20;100905.91;2863246;83;21030;-68
2022/03/05 02:45:21;;;;;;;26.37;15.98;;;;;;;2.60;86.55;100903.37;2863481;83;21560;-69
2022/03/05 02:49:24;;;;;;;30.17;18.45;;;;;;;2.61;86.15;100905.08;2863232;82;21097;-69
2022/03/05 02:53:25;;;;;;;26.45;15.95;;;;;;;2.57;86.37;100903.02;2863213;83;21078;-69
2022/03/05 02:57:27;;;;;;;35.68;15.83;;;;;;;2.53;86.74;100904.50;2862759;83;21050;-69
2022/03/05 03:01:28;;;;;;;26.60;15.28;;;;;;;2.66;87.33;100903.59;2863165;83;21113;-69
2022/03/05 03:05:30;;;;;;;26.45;14.80;;;;;;;2.74;86.32;100907.20;2863219;83;21037;-69
2022/03/05 03:09:32;;;;;;;26.15;16.87;;;;;;;2.74;86.40;100901.95;2863249;83;21042;-69
2022/03/05 03:13:34;;;;;;;26.45;15.68;;;;;;;2.77;86.32;100900.07;2863461;81;21022;-68
2022/03/05 03:17:48;;;;;;;26.45;16.67;;;;;;;2.77;86.25;100901.86;2863585;83;21046;-69
2022/03/05 03:21:49;;;;;;;28.52;18.60;;;;;;;2.58;86.65;100909.14;2764957;86;21034;-69
2022/03/05 03:25:51;;;;;;;23.67;14.85;;;;;;;2.50;86.96;100908.56;2765564;86;21105;-68
2022/03/05 03:29:52;;;;;;;28.65;17.32;;;;;;;2.52;87.33;100907.59;2765628;86;21122;-69
2022/03/05 03:33:54;;;;;;;24.75;19.55;;;;;;;2.59;87.09;100904.73;2753479;86;21072;-69
2022/03/05 03:37:56;;;;;;;25.48;17.20;;;;;;;2.73;86.73;100912.06;2721532;87;21596;-69
2022/03/05 03:41:57;;;;;;;20.15;16.55;;;;;;;2.87;86.62;100906.30;2721692;87;21099;-69
2022/03/05 03:45:59;;;;;;;26.75;17.62;;;;;;;2.98;85.78;100902.31;2673211;89;21083;-69
2022/03/05 03:50:02;;;;;;;23.92;19.25;;;;;;;3.11;85.69;100900.48;2673405;89;21120;-69
2022/03/05 03:54:04;;;;;;;26.25;16.75;;;;;;;3.06;84.42;100909.02;2673226;89;21814;-69
2022/03/05 03:58:05;;;;;;;26.55;17.55;;;;;;;2.97;84.67;100903.23;2695325;87;21042;-69
2022/03/05 04:02:07;;;;;;;26.75;18.35;;;;;;;2.96;84.87;100909.85;2765223;86;21614;-69
2022/03/05 04:06:09;;;;;;;27.07;17.32;;;;;;;2.93;84.62;100908.67;2736693;87;21005;-69
2022/03/05 04:10:11;;;;;;;26.95;18.85;;;;;;;2.81;84.67;100910.84;2765510;86;21066;-69
2022/03/05 04:14:12;;;;;;;32.53;21.20;;;;;;;2.76;85.01;100911.97;2736265;87;21744;-69
2022/03/05 04:18:14;;;;;;;33.13;19.82;;;;;;;2.79;85.08;100905.28;2764468;86;21062;-69
2022/03/05 04:22:16;;;;;;;37.08;22.55;;;;;;;2.82;84.90;100902.52;2736240;87;21133;-69
2022/03/05 04:26:18;;;;;;;37.67;20.30;;;;;;;2.86;84.65;100904.11;2763912;86;21051;-69
2022/03/05 04:30:19;;;;;;;41.58;22.45;;;;;;;2.90;84.54;100904.38;2764214;85;21043;-68
2022/03/05 04:34:21;;;;;;;30.90;20.68;;;;;;;2.90;84.10;100907.48;2778964;84;21010;-69
2022/03/05 04:38:22;;;;;;;37.88;21.97;;;;;;;2.87;83.91;100907.61;2777839;85;21038;-68
2022/03/05 04:42:24;;;;;;;34.40;22.20;;;;;;;2.72;83.66;100919.11;2778195;85;21093;-68
2022/03/05 04:46:26;;;;;;;28.27;22.05;;;;;;;2.60;83.95;100920.44;2778145;85;21606;-68
2022/03/05 04:50:28;;;;;;;34.48;22.48;;;;;;;2.56;84.22;100922.80;2778284;85;21078;-68
2022/03/05 04:54:30;;;;;;;35.55;22.58;;;;;;;2.58;84.27;100917.02;2778008;85;21054;-69
2022/03/05 04:58:31;;;;;;;30.82;21.42;;;;;;;2.51;83.74;100923.41;2777707;84;21042;-68
2022/03/05 05:02:33;;;;;;;33.30;20.23;;;;;;;2.49;84.64;100915.59;2777998;85;21109;-69
2022/03/05 05:06:35;;;;;;;31.97;18.95;;;;;;;2.50;84.16;100930.88;2778016;85;21049;-68
2022/03/05 05:10:36;;;;;;;34.20;20.12;;;;;;;2.34;84.60;100932.77;2778358;85;21058;-69
2022/03/05 05:14:38;;;;;;;32.10;20.55;;;;;;;2.35;84.69;100941.03;2777970;85;21078;-68
2022/03/05 05:19:24;;;;;;;32.75;22.45;;;;;;;2.41;84.71;100936.89;2777621;85;21030;-69
2022/03/05 05:22:43;;;;;;;29.32;21.00;;;;;;;2.52;84.72;100938.24;2774577;85;21050;-68
2022/03/05 05:26:45;;;;;;;28.65;20.60;;;;;;;2.62;84.35;100940.06;2778099;85;21159;-68
2022/03/05 05:30:46;;;;;;;31.82;20.90;;;;;;;2.69;84.02;100941.09;2777574;84;21049;-68
2022/03/05 05:34:48;;;;;;;25.77;17.27;;;;;;;2.76;83.72;100940.88;2774902;85;21043;-69
2022/03/05 05:38:50;;;;;;;25.10;18.32;;;;;;;2.83;83.00;100939.70;2769351;86;21690;-68
2022/03/05 05:42:51;;;;;;;25.92;17.57;;;;;;;2.85;82.65;100945.31;2769719;86;21110;-68
2022/03/05 05:46:53;;;;;;;24.65;18.07;;;;;;;2.89;82.37;100949.97;2769625;86;21086;-69
2022/03/05 05:50:55;;;;;;;29.40;19.07;;;;;;;2.90;81.78;100950.37;2769707;86;21058;-69
2022/03/05 05:54:57;;;;;;;23.30;16.60;;;;;;;2.90;81.50;100956.94;2769876;86;21110;-69
2022/03/05 05:58:58;;;;;;;25.85;18.20;;;;;;;2.82;81.47;100954.60;2770026;84;21011;-69
2022/03/05 06:03:00;;;;;;;17.95;14.50;;;;;;;2.80;81.27;100954.28;2769998;86;21085;-69
2022/03/05 06:07:02;;;;;;;20.88;13.60;;;;;;;2.73;81.11;100961.98;2770023;86;21590;-69
2022/03/05 06:11:04;;;;;;;18.52;14.10;;;;;;;2.59;81.02;100955.50;2769689;86;21046;-69
2022/03/05 06:15:08;;;;;;;26.62;15.65;;;;;;;2.52;81.24;100956.63;2769721;86;21046;-68
2022/03/05 06:19:10;;;;;;;23.40;14.38;;;;;;;2.46;81.40;100960.36;2769607;86;21622;-68
2022/03/05 06:23:11;;;;;;;24.23;13.48;;;;;;;2.40;81.50;100968.45;2769641;86;21042;-68
2022/03/05 06:27:13;;;;;;;22.40;13.45;;;;;;;2.38;81.54;100961.96;2769400;86;21062;-68
2022/03/05 06:31:15;;;;;;;21.93;12.88;;;;;;;2.41;81.80;100969.72;2769678;86;21046;-68
2022/03/05 06:35:17;;;;;;;17.20;11.25;;;;;;;2.51;81.71;100978.55;2769188;86;21086;-68
2022/03/05 06:39:18;;;;;;;15.85;11.63;;;;;;;2.66;81.51;100976.67;2769785;86;21098;-68
2022/03/05 06:43:20;;;;;;;18.30;11.60;;;;;;;2.80;81.24;100981.88;2769894;86;21054;-68
2022/03/05 06:47:22;;;;;;;18.45;11.40;;;;;;;2.99;81.09;100984.63;2769614;86;21078;-67
2022/03/05 06:51:24;;;;;;;20.77;12.88;;;;;;;3.04;80.02;100985.78;2769834;86;21046;-68
2022/03/05 06:55:26;;;;;;;24.40;11.77;;;;;;;3.15;80.32;100983.59;2769652;86;21082;-68
2022/03/05 06:59:27;;;;;;;14.05;10.78;;;;;;;3.29;79.41;100985.19;2768294;86;22161;-68
2022/03/05 07:03:29;;;;;;;16.70;10.15;;;;;;;3.45;79.61;100981.95;2725022;86;21069;-68
2022/03/05 07:07:31;;;;;;;20.95;12.88;;;;;;;3.60;78.26;100984.39;2724898;87;21050;-69
2022/03/05 07:11:34;;;;;;;22.00;10.88;;;;;;;3.70;77.17;100978.29;2724711;86;21098;-68
2022/03/05 07:15:35;;;;;;;19.92;10.82;;;;;;;3.57;76.48;100978.83;2724934;86;21623;-68
2022/03/05 07:19:37;;;;;;;27.90;13.28;;;;;;;3.40;76.80;100986.55;2724746;87;21058;-68
2022/03/05 07:23:38;;;;;;;22.27;13.08;;;;;;;3.29;76.92;100985.66;2724566;87;21121;-68
2022/03/05 07:27:40;;;;;;;23.50;13.75;;;;;;;3.22;77.11;100986.37;2724432;87;21086;-69
2022/03/05 07:31:42;;;;;;;17.15;12.18;;;;;;;3.21;77.72;100991.23;2724867;87;21110;-69
2022/03/05 07:35:43;;;;;;;20.95;12.85;;;;;;;3.17;77.22;100995.34;2719090;87;21071;-69
2022/03/05 07:39:45;;;;;;;18.37;11.48;;;;;;;3.18;77.31;100992.67;2730461;87;21087;-69
2022/03/05 07:43:47;;;;;;;27.10;12.40;;;;;;;3.18;78.23;100992.67;2766241;86;21085;-69
2022/03/05 07:47:49;;;;;;;22.00;12.88;;;;;;;3.23;78.78;100999.91;2766360;86;21137;-69
2022/03/05 07:51:52;;;;;;;24.57;13.22;;;;;;;3.27;78.38;101000.66;2767117;86;21098;-69
2022/03/05 07:55:55;;;;;;;22.10;13.03;;;;;;;3.45;77.93;101000.36;2766886;86;21018;-69
2022/03/05 07:59:56;;;;;;;21.15;12.98;;;;;;;3.48;77.71;101005.97;2766556;86;21045;-69
2022/03/05 08:03:58;;;;;;;18.35;13.70;;;;;;;3.65;76.73;101005.27;2767028;86;21101;-69
2022/03/05 08:07:59;;;;;;;16.93;12.13;;;;;;;3.68;76.20;101007.77;2766788;85;21045;-69
2022/03/05 08:12:01;;;;;;;14.87;11.33;;;;;;;3.85;76.88;101021.08;2786590;83;21083;-69
2022/03/05 08:16:04;;;;;;;16.27;12.05;;;;;;;3.97;77.20;101021.02;2813501;84;21069;-69
2022/03/05 08:20:07;;;;;;;17.27;10.82;;;;;;;3.98;76.15;101019.26;2813619;83;21077;-69
2022/03/05 08:24:09;;;;;;;20.20;13.10;;;;;;;3.67;76.94;101019.20;2775044;84;21105;-69
2022/03/05 08:28:11;;;;;;;20.12;11.60;;;;;;;3.73;77.90;101018.11;2784321;84;21106;-69
2022/03/05 08:32:13;;;;;;;14.95;11.18;;;;;;;3.94;77.33;101024.26;2813665;84;21094;-68
2022/03/05 08:36:15;;;;;;;18.77;11.35;;;;;;;4.07;76.34;101023.27;2811929;84;21082;-68
2022/03/05 08:40:17;;;;;;;14.43;9.80;;;;;;;4.13;75.53;101023.00;2771490;85;21505;-69
2022/03/05 08:44:18;;;;;;;19.77;8.38;;;;;;;4.35;75.14;101022.94;2831684;82;21754;-68
2022/03/05 08:48:20;;;;;;;26.27;11.30;;;;;;;4.46;73.83;101037.39;2856012;82;21107;-68
2022/03/05 08:52:22;;;;;;;16.42;11.05;;;;;;;4.56;74.17;101029.01;2854731;83;21035;-68
2022/03/05 08:56:23;;;;;;;13.75;7.22;;;;;;;4.48;73.63;101035.09;2808100;84;21067;-68
2022/03/05 09:00:26;;;;;;;13.83;8.80;;;;;;;4.23;72.95;101040.58;2808144;84;21075;-68
2022/03/05 09:04:27;;;;;;;10.65;7.30;;;;;;;4.38;70.68;101037.28;2830553;83;21106;-68
2022/03/05 09:08:29;;;;;;;13.72;8.00;;;;;;;4.46;69.54;101042.22;2856180;83;21048;-68
2022/03/05 09:12:31;;;;;;;8.50;6.80;;;;;;;4.65;69.61;101040.08;2856338;83;21106;-68
2022/03/05 09:16:37;;;;;;;9.35;7.17;;;;;;;4.67;67.90;101035.11;2856053;83;21059;-68
2022/03/05 09:20:40;;;;;;;9.15;6.62;;;;;;;4.65;66.86;101041.40;2855648;82;20985;-68
2022/03/05 09:24:42;;;;;;;11.00;6.40;;;;;;;4.61;64.66;101043.75;2855492;82;21135;-68
2022/03/05 09:28:44;;;;;;;10.32;6.67;;;;;;;4.63;66.12;101035.34;2847454;83;21067;-68
2022/03/05 09:32:45;;;;;;;8.43;6.33;;;;;;;4.75;65.93;101047.11;2816740;83;21098;-68
2022/03/05 09:36:47;;;;;;;7.55;5.22;;;;;;;4.74;64.96;101046.23;2799755;82;21110;-68
2022/03/05 09:40:49;;;;;;;7.55;5.85;;;;;;;4.69;63.56;101039.84;2781579;84;21038;-68
2022/03/05 09:44:51;;;;;;;5.67;5.10;;;;;;;4.66;63.39;101037.84;2782077;84;21042;-68
2022/03/05 09:48:54;;;;;;;5.60;5.00;;;;;;;4.69;63.43;101038.53;2782228;85;21027;-67
2022/03/05 09:52:57;;;;;;;11.90;5.90;;;;;;;4.93;65.22;101033.53;2782307;85;21118;-68
2022/03/05 09:56:58;;;;;;;14.00;6.67;;;;;;;5.10;64.62;101038.89;2782206;85;21099;-69
2022/03/05 10:01:00;;;;;;;8.95;5.58;;;;;;;5.33;63.54;101032.14;2782277;85;21063;-69
2022/03/05 10:05:18;;;;;;;12.05;8.68;;;;;;;5.35;62.80;101035.08;2762124;85;21053;-69
2022/03/05 10:09:22;;;;;;;12.40;7.55;;;;;;;5.49;63.17;101037.04;2735443;85;21085;-68
2022/03/05 10:13:31;;;;;;;10.90;8.30;;;;;;;5.51;62.44;101034.34;2706961;85;21343;-69
2022/03/05 10:17:54;;;;;;;11.65;9.15;;;;;;;5.53;62.71;101033.80;2736040;85;21096;-67
2022/03/05 10:22:06;;;;;;;10.00;7.58;;;;;;;5.68;62.57;101035.69;2801373;84;21046;-68
2022/03/05 10:26:09;;;;;;;12.50;7.90;;;;;;;5.80;60.14;101044.79;2760004;84;21645;-68
2022/03/05 10:30:11;;;;;;;11.30;8.13;;;;;;;5.72;59.45;101035.09;2788854;84;21046;-67
2022/03/05 10:34:13;;;;;;;12.07;8.00;;;;;;;5.69;58.98;101027.30;2781260;85;21103;-68
2022/03/05 10:38:15;;;;;;;13.13;10.10;;;;;;;5.56;59.02;101030.55;2785074;85;21079;-68
2022/03/05 10:42:23;;;;;;;13.35;9.88;;;;;;;5.43;60.12;101021.52;2785485;85;21100;-68
2022/03/05 10:46:46;;;;;;;13.15;7.75;;;;;;;5.27;59.05;101030.16;2785546;85;21060;-68
2022/03/05 10:50:48;;;;;;;10.45;7.15;;;;;;;5.20;61.56;101026.12;2786040;85;21106;-68
2022/03/05 10:54:49;;;;;;;9.75;8.10;;;;;;;5.37;59.16;101021.82;2786158;85;21075;-68
2022/03/05 10:59:11;;;;;;;13.15;9.60;;;;;;;5.49;59.16;101019.05;2785896;85;21067;-67
2022/03/05 11:03:14;;;;;;;14.33;9.53;;;;;;;5.45;59.18;101024.94;2785810;85;21056;-67
2022/03/05 11:07:17;;;;;;;13.48;8.78;;;;;;;5.38;59.95;101022.21;2786110;85;21040;-67
2022/03/05 11:11:21;;;;;;;11.93;8.33;;;;;;;5.34;60.25;101018.86;2785527;84;21086;-67
2022/03/05 11:15:24;;;;;;;9.90;8.60;;;;;;;5.29;57.42;101017.75;2785618;84;21059;-67
2022/03/05 11:19:27;;;;;;;10.75;8.60;;;;;;;5.26;57.92;101017.91;2785876;84;21078;-67
2022/03/05 11:23:30;;;;;;;11.38;7.28;;;;;;;5.25;58.39;101011.40;2785442;85;21078;-68
2022/03/05 11:27:31;;;;;;;14.95;9.05;;;;;;;5.28;58.21;101012.56;2736771;85;22374;-67
2022/03/05 11:31:35;;;;;;;10.23;8.08;;;;;;;5.26;59.21;101011.78;2781499;85;21063;-68
2022/03/05 11:35:43;;;;;;;16.00;9.00;;;;;;;5.32;58.65;101004.89;2778552;85;21092;-68
2022/03/05 11:39:41;;;;;;;27.02;14.13;;;;;;;5.32;56.54;101006.69;2756220;86;21076;-68
2022/03/05 11:43:42;;;;;;;34.73;17.00;;;;;;;5.31;56.14;101004.50;2757364;86;21056;-67
2022/03/05 11:47:44;;;;;;;14.60;9.15;;;;;;;5.26;55.90;101012.63;2757138;86;21076;-67
2022/03/05 11:51:56;;;;;;;10.13;7.03;;;;;;;5.33;55.03;101010.55;2757343;86;21068;-67
2022/03/05 11:56:09;;;;;;;13.08;8.13;;;;;;;5.28;53.85;101005.97;2757318;86;21112;-69
2022/03/05 12:00:11;;;;;;;13.38;8.50;;;;;;;5.17;54.91;101006.48;2747152;86;21096;-68
2022/03/05 12:04:23;;;;;;;12.63;8.00;;;;;;;5.14;54.51;101000.88;2757437;86;21037;-67
2022/03/05 12:08:30;;;;;;;13.78;7.83;;;;;;;5.25;54.28;101003.00;2756483;86;21108;-66
2022/03/05 12:12:48;;;;;;;8.25;6.03;;;;;;;5.31;53.27;101005.81;2757285;86;21079;-66
2022/03/05 12:16:49;;;;;;;11.30;8.13;;;;;;;5.28;52.67;101000.21;2756616;86;21047;-67
2022/03/05 12:20:51;;;;;;;13.13;8.55;;;;;;;5.34;52.73;100999.55;2756971;86;21024;-66
2022/03/05 12:24:52;;;;;;;17.80;12.10;;;;;;;5.40;52.51;100999.23;2757479;86;21017;-67
2022/03/05 12:28:55;;;;;;;9.70;7.17;;;;;;;5.47;53.32;100995.84;2757005;86;21060;-66
2022/03/05 12:33:01;;;;;;;10.35;7.22;;;;;;;5.52;51.69;100985.91;2748146;86;21032;-65
2022/03/05 12:37:04;;;;;;;8.83;7.62;;;;;;;5.61;53.72;100984.59;2723664;85;21017;-65
2022/03/05 12:41:06;;;;;;;13.38;9.18;;;;;;;5.66;52.81;100989.17;2732561;86;21110;-65
2022/03/05 12:45:14;;;;;;;12.13;8.00;;;;;;;5.83;51.78;100992.30;2738816;86;21044;-65
2022/03/05 12:49:17;;;;;;;11.20;7.85;;;;;;;6.05;50.39;100976.22;2747807;85;21060;-65
2022/03/05 12:53:22;;;;;;;7.97;7.03;;;;;;;6.11;49.54;100973.28;2743823;86;21112;-65
2022/03/05 12:57:25;;;;;;;12.73;7.40;;;;;;;6.04;49.33;100986.41;2754948;85;21048;-64
2022/03/05 13:01:28;;;;;;;9.13;6.60;;;;;;;6.03;49.24;100977.26;2746732;86;21572;-65
2022/03/05 13:05:29;;;;;;;9.35;7.40;;;;;;;6.12;50.30;100975.44;2710406;87;21016;-65
2022/03/05 13:09:31;;;;;;;10.32;7.80;;;;;;;6.11;49.28;100977.25;2694283;87;21012;-66
2022/03/05 13:13:48;;;;;;;8.73;6.62;;;;;;;6.05;47.74;100971.42;2763389;86;21058;-65
2022/03/05 13:17:50;;;;;;;10.75;7.53;;;;;;;6.07;49.28;100973.03;2712470;86;21552;-67
2022/03/05 13:21:53;;;;;;;10.20;7.45;;;;;;;6.07;49.90;100974.35;2735207;86;21112;-70
2022/03/05 13:25:55;;;;;;;10.00;6.70;;;;;;;6.17;49.12;100965.97;2757123;86;21096;-69
2022/03/05 13:30:08;;;;;;;8.48;7.58;;;;;;;6.21;48.84;100967.05;2756788;86;21084;-70
2022/03/05 13:34:25;;;;;;;10.93;6.92;;;;;;;6.30;48.95;100960.43;2756451;85;21047;-68
2022/03/05 13:38:27;;;;;;;12.15;9.58;;;;;;;6.34;49.39;100960.64;2732516;86;21040;-69
2022/03/05 13:42:36;;;;;;;12.00;7.85;;;;;;;6.34;49.77;100963.28;2758190;85;21376;-69
2022/03/05 13:46:37;;;;;;;13.68;8.68;;;;;;;6.17;49.46;100958.05;2749838;85;21095;-68
2022/03/05 13:50:40;;;;;;;13.60;8.45;;;;;;;5.93;50.85;100951.76;2736211;87;21099;-69
2022/03/05 13:54:44;;;;;;;17.17;11.93;;;;;;;5.82;50.21;100950.99;2736063;87;20999;-70
2022/03/05 13:58:56;;;;;;;15.08;8.68;;;;;;;5.76;50.37;100952.16;2766711;84;21095;-68
2022/03/05 14:02:58;;;;;;;10.15;8.65;;;;;;;5.70;51.21;100963.88;2749094;85;21071;-70
2022/03/05 14:07:05;;;;;;;14.45;9.15;;;;;;;5.66;52.15;100954.86;2735570;87;21122;-69
2022/03/05 14:11:07;;;;;;;12.95;10.45;;;;;;;5.56;49.97;100957.98;2736825;85;21027;-68
2022/03/05 14:15:10;;;;;;;23.45;13.55;;;;;;;5.50;50.62;100956.97;2747409;85;21099;-68
2022/03/05 14:19:31;;;;;;;10.35;7.22;;;;;;;5.43;50.79;100955.55;2748021;85;21059;-68
2022/03/05 14:23:32;;;;;;;10.88;8.80;;;;;;;5.40;49.27;100955.26;2759694;85;21015;-69
2022/03/05 14:27:34;;;;;;;10.48;8.55;;;;;;;5.32;49.11;100953.44;2760180;84;21160;-68
2022/03/05 14:31:36;;;;;;;10.05;8.45;;;;;;;5.36;49.14;100947.56;2800860;85;21070;-69
2022/03/05 14:35:40;;;;;;;12.65;10.00;;;;;;;5.32;47.80;100949.97;2801125;85;21646;-67
2022/03/05 14:39:53;;;;;;;9.35;8.38;;;;;;;5.34;48.41;100954.22;2785556;84;21074;-68
2022/03/05 14:43:51;;;;;;;13.85;9.70;;;;;;;5.32;50.67;100961.84;2777554;85;21090;-67
2022/03/05 14:47:56;;;;;;;11.12;8.85;;;;;;;5.36;49.93;100960.27;2779140;85;21038;-68
2022/03/05 14:52:05;;;;;;;15.53;8.45;;;;;;;5.35;48.48;100957.72;2779432;84;21051;-68
2022/03/05 14:56:11;;;;;;;13.62;8.93;;;;;;;5.38;49.02;100951.81;2778832;85;21047;-67
2022/03/05 15:00:17;;;;;;;20.85;12.45;;;;;;;5.29;48.90;100960.20;2779675;84;21066;-67
2022/03/05 15:04:25;;;;;;;14.35;8.78;;;;;;;5.17;50.16;100953.73;2779061;85;21011;-68
2022/03/05 15:08:33;;;;;;;14.58;8.73;;;;;;;5.15;49.97;100960.88;2779176;85;21104;-69
2022/03/05 15:12:37;;;;;;;11.28;8.25;;;;;;;5.09;49.13;100959.83;2779457;85;21046;-65
2022/03/05 15:16:40;;;;;;;32.60;12.47;;;;;;;5.00;48.66;100969.90;2778924;85;21050;-65
2022/03/05 15:20:43;;;;;;;15.58;9.38;;;;;;;5.04;49.93;100972.39;2778761;85;20987;-66
2022/03/05 15:24:45;;;;;;;14.20;11.85;;;;;;;5.03;50.95;100968.04;2778545;85;21043;-66
2022/03/05 15:28:47;;;;;;;18.02;11.12;;;;;;;4.98;49.56;100962.53;2808491;84;21065;-67
2022/03/05 15:32:49;;;;;;;20.88;15.43;;;;;;;4.99;50.46;100952.82;2819093;84;21109;-66
2022/03/05 15:36:51;;;;;;;26.05;15.43;;;;;;;4.94;50.69;100956.15;2806566;84;21069;-67
2022/03/05 15:40:53;;;;;;;10.45;6.28;;;;;;;4.91;51.76;100946.59;2781215;85;21065;-66
2022/03/05 15:44:54;;;;;;;5.28;4.80;;;;;;;4.92;50.72;100945.69;2780506;85;21017;-67
2022/03/05 15:48:56;;;;;;;8.73;6.15;;;;;;;4.98;50.15;100944.52;2780725;85;21035;-66
2022/03/05 15:52:58;;;;;;;19.07;16.80;;;;;;;5.02;51.70;100939.97;2781012;85;21041;-66
2022/03/05 15:56:59;;;;;;;12.60;10.90;;;;;;;5.04;51.25;100938.11;2781163;85;21064;-66
2022/03/05 16:01:06;;;;;;;11.65;8.03;;;;;;;5.00;51.54;100935.63;2780733;85;21056;-67
2022/03/05 16:05:09;;;;;;;12.10;9.95;;;;;;;4.93;51.28;100927.63;2780918;85;21061;-66
2022/03/05 16:09:11;;;;;;;11.85;8.78;;;;;;;4.76;52.06;100940.27;2780426;84;21100;-67
2022/03/05 16:13:13;;;;;;;23.95;19.23;;;;;;;4.49;51.11;100940.64;2780801;85;21152;-67
2022/03/05 16:17:15;;;;;;;27.85;21.95;;;;;;;4.39;51.20;100956.02;2779875;85;21076;-67
2022/03/05 16:21:18;;;;;;;24.18;19.92;;;;;;;4.33;52.17;100951.03;2780453;85;21087;-66
2022/03/05 16:25:20;;;;;;;20.48;13.10;;;;;;;4.22;52.54;100958.55;2780617;85;21028;-66
2022/03/05 16:29:22;;;;;;;19.37;12.03;;;;;;;4.16;53.31;100954.40;2780059;84;21048;-66
2022/03/05 16:33:24;;;;;;;15.50;9.55;;;;;;;4.07;53.22;100950.39;2767636;85;21114;-67
2022/03/05 16:37:26;;;;;;;15.45;8.65;;;;;;;4.02;53.74;100950.19;2729351;87;21076;-66
2022/03/05 16:41:28;;;;;;;10.70;7.37;;;;;;;3.96;54.77;100957.44;2711228;87;21005;-66
2022/03/05 16:45:31;;;;;;;15.28;7.60;;;;;;;3.90;55.65;100967.38;2707697;88;21063;-67
2022/03/05 16:49:32;;;;;;;9.10;6.37;;;;;;;3.79;56.48;100976.60;2707837;88;21052;-66
2022/03/05 16:53:35;;;;;;;14.95;8.15;;;;;;;3.73;56.08;100982.10;2707072;87;21139;-66
2022/03/05 16:57:40;;;;;;;9.90;6.97;;;;;;;3.66;57.15;100983.30;2768895;86;21080;-67
2022/03/05 17:01:43;;;;;;;7.97;7.10;;;;;;;3.56;57.75;100982.37;2769350;85;21136;-66
2022/03/05 17:05:48;;;;;;;11.73;7.83;;;;;;;3.49;56.64;100973.00;2768761;86;31524;-66
2022/03/05 17:09:50;;;;;;;14.63;8.28;;;;;;;3.42;57.15;100976.81;2769251;86;21094;-66
2022/03/05 17:13:55;;;;;;;45.30;27.93;;;;;;;3.28;55.25;100981.33;2768814;86;21370;-66
2022/03/05 17:17:58;;;;;;;77.45;46.45;;;;;;;3.19;55.60;100974.66;2769108;85;21030;-66
2022/03/05 17:22:01;;;;;;;19.12;12.60;;;;;;;3.15;55.61;100977.02;2769051;84;21061;-66
2022/03/05 17:26:05;;;;;;;12.30;8.75;;;;;;;3.13;55.51;100975.76;2768015;86;21125;-66
2022/03/05 17:30:09;;;;;;;14.73;10.48;;;;;;;2.99;56.55;100968.86;2767912;85;21105;-65
2022/03/05 17:34:11;;;;;;;14.90;9.85;;;;;;;2.88;57.45;100970.59;2766293;85;21041;-66
2022/03/05 17:38:14;;;;;;;19.67;12.45;;;;;;;2.84;58.21;100965.91;2766767;84;21055;-66
2022/03/05 17:42:18;;;;;;;18.07;11.43;;;;;;;2.78;58.63;100973.20;2765246;85;21554;-66
2022/03/05 17:46:20;;;;;;;19.20;10.70;;;;;;;2.77;58.91;100975.42;2765766;86;21061;-67
2022/03/05 17:50:25;;;;;;;18.92;12.68;;;;;;;2.78;58.84;100985.02;2794816;84;21093;-68
2022/03/05 17:54:30;;;;;;;166.17;82.00;;;;;;;2.76;56.89;100984.23;2764045;86;21032;-66
2022/03/05 17:58:32;;;;;;;114.60;56.88;;;;;;;2.82;57.57;100990.08;2766771;85;21063;-67
2022/03/05 18:02:34;;;;;;;28.25;16.70;;;;;;;2.85;58.46;100983.42;2767465;85;22434;-68
2022/03/05 18:06:36;;;;;;;156.90;71.40;;;;;;;2.80;57.89;100988.44;2768256;86;21066;-67
2022/03/05 18:10:37;;;;;;;34.70;16.48;;;;;;;2.78;57.50;100994.22;2767504;85;21100;-66
2022/03/05 18:14:40;;;;;;;74.80;34.13;;;;;;;2.75;57.98;100994.30;2767379;84;21042;-67
2022/03/05 18:18:41;;;;;;;16.97;10.78;;;;;;;2.77;58.01;100993.82;2767909;85;21274;-67
2022/03/05 18:22:44;;;;;;;15.23;10.98;;;;;;;2.81;58.13;100999.35;2768025;84;21082;-66
2022/03/05 18:26:45;;;;;;;61.37;35.13;;;;;;;2.81;58.41;100994.94;2767103;85;21118;-66
2022/03/05 18:30:47;;;;;;;33.30;16.23;;;;;;;2.79;57.94;100994.62;2759747;86;21580;-67
2022/03/05 18:34:50;;;;;;;12.73;8.80;;;;;;;2.78;58.02;100995.05;2765792;86;21018;-66
2022/03/05 18:38:56;;;;;;;20.20;14.03;;;;;;;2.76;57.24;100994.73;2819181;83;21065;-66
2022/03/05 18:42:59;;;;;;;15.68;11.05;;;;;;;2.73;56.88;100994.83;2827137;84;21101;-66
2022/03/05 18:47:01;;;;;;;12.13;9.55;;;;;;;2.66;56.28;100989.81;2830868;84;21653;-67